Time;durP1;ratioP1;P1;durP2;ratioP2;P2;SDS_P1;SDS_P2;PMS_P1;PMS_P2;Temp;Humidity;BMP_temperature;BMP_pressure;BME280_temperature;BME280_humidity;BME280_pressure;Samples;Min_cycle;Max_cycle;Signal;HPM_P1;HPM_P2
2023/12/17 10:50:58;;;;;;;1.40;1.20;;;8.20;99.90;;;;;;10031912;24;20246;-80
2023/12/17 10:56:20;;;;;;;1.70;1.30;;;;;;;;;;9808723;30;20278;-81
2023/12/17 11:01:42;;;;;;;1.20;1.10;;;8.40;99.90;;;;;;9801340;30;20276;-80
2023/12/17 11:07:03;;;;;;;1.57;1.47;;;8.30;99.90;;;;;;9786123;30;20492;-80
2023/12/17 11:12:26;;;;;;;5.43;2.60;;;8.20;99.90;;;;;;9796785;30;20269;-80
2023/12/17 11:17:47;;;;;;;3.53;2.03;;;8.20;99.90;;;;;;9785487;30;20284;-80
2023/12/17 11:23:09;;;;;;;4.07;2.87;;;8.20;99.90;;;;;;9809327;30;20557;-79
2023/12/17 11:28:30;;;;;;;3.10;2.20;;;8.20;99.90;;;;;;9820459;30;20211;-80
2023/12/17 11:33:52;;;;;;;3.30;2.80;;;8.20;99.90;;;;;;9788051;30;20242;-82
2023/12/17 11:39:13;;;;;;;3.23;2.90;;;8.20;99.90;;;;;;9782774;30;20246;-79
2023/12/17 11:44:34;;;;;;;3.80;2.60;;;8.20;99.90;;;;;;9793982;30;20283;-78
2023/12/17 11:50:00;;;;;;;6.17;3.00;;;8.20;99.90;;;;;;9793247;30;20381;-81
2023/12/17 11:55:21;;;;;;;3.83;2.70;;;8.30;99.90;;;;;;9820299;30;20238;-82
2023/12/17 12:00:59;;;;;;;3.83;3.03;;;8.20;99.90;;;;;;9821118;30;20446;-82
2023/12/17 12:06:21;;;;;;;6.23;3.27;;;8.30;99.90;;;;;;9820387;30;20399;-81
2023/12/17 12:11:42;;;;;;;7.37;4.53;;;8.30;99.90;;;;;;9807463;30;20536;-79
2023/12/17 12:17:04;;;;;;;7.10;4.23;;;8.30;99.90;;;;;;9819691;30;20359;-79
2023/12/17 12:22:28;;;;;;;9.37;3.83;;;8.30;99.90;;;;;;9797224;30;20211;-78
2023/12/17 12:27:50;;;;;;;3.77;3.10;;;8.20;99.90;;;;;;9797594;30;20215;-79
2023/12/17 12:33:13;;;;;;;4.77;3.27;;;8.20;99.90;;;;;;9798851;30;20241;-79
2023/12/17 12:38:34;;;;;;;4.97;3.87;;;8.20;99.90;;;;;;9806709;30;20217;-79
2023/12/17 12:43:56;;;;;;;5.73;4.00;;;8.20;99.90;;;;;;9818638;30;20304;-80
2023/12/17 12:49:18;;;;;;;8.97;4.33;;;8.20;99.90;;;;;;9819226;30;20619;-80
2023/12/17 12:54:39;;;;;;;5.37;3.73;;;8.20;99.90;;;;;;9806173;30;20248;-80
2023/12/17 13:00:01;;;;;;;5.20;3.77;;;8.20;99.90;;;;;;9817902;30;20207;-80
2023/12/17 13:05:22;;;;;;;7.50;4.80;;;8.20;99.90;;;;;;9805590;30;20507;-78
2023/12/17 13:10:44;;;;;;;8.37;4.70;;;8.20;99.90;;;;;;9819218;30;20248;-79
2023/12/17 13:16:07;;;;;;;7.53;4.43;;;8.10;99.90;;;;;;9817790;30;20206;-81
2023/12/17 13:21:28;;;;;;;8.90;4.60;;;8.10;99.90;;;;;;9818489;30;20206;-82
2023/12/17 13:26:49;;;;;;;7.50;4.67;;;8.20;99.90;;;;;;9818560;30;20261;-82
2023/12/17 13:32:11;;;;;;;8.97;4.70;;;8.20;99.90;;;;;;9817679;30;20589;-82
2023/12/17 13:37:32;;;;;;;6.70;5.10;;;8.10;99.90;;;;;;9804882;30;20215;-82
2023/12/17 13:42:54;;;;;;;7.30;4.97;;;8.20;99.90;;;;;;9817981;30;20593;-80
2023/12/17 13:48:16;;;;;;;10.07;5.20;;;8.20;99.90;;;;;;9816828;30;20317;-82
2023/12/17 13:53:37;;;;;;;8.63;6.00;;;8.20;99.90;;;;;;9818080;30;20311;-82
2023/12/17 13:58:58;;;;;;;9.30;6.33;;;8.30;99.90;;;;;;9817842;30;20526;-82
2023/12/17 14:04:19;;;;;;;9.97;5.73;;;8.20;99.90;;;;;;9818036;30;20257;-82
2023/12/17 14:09:40;;;;;;;7.93;5.83;;;8.20;99.90;;;;;;9817597;30;20284;-82
2023/12/17 14:15:03;;;;;;;9.13;6.07;;;8.30;99.90;;;;;;9817953;30;20550;-81
2023/12/17 14:20:25;;;;;;;11.40;6.13;;;8.20;99.90;;;;;;9816883;30;20207;-82
2023/12/17 14:25:47;;;;;;;11.27;6.30;;;8.30;99.90;;;;;;9817443;30;20219;-82
2023/12/17 14:31:13;;;;;;;8.13;5.03;;;8.20;99.90;;;;;;9819708;30;20238;-81
2023/12/17 14:36:37;;;;;;;12.27;5.80;;;8.20;99.90;;;;;;9823722;30;20203;-81
2023/12/17 14:41:58;;;;;;;11.53;5.97;;;8.30;87.90;;;;;;9810606;30;20218;-81
2023/12/17 14:47:19;;;;;;;6.80;5.60;;;8.40;43.10;;;;;;9823039;30;20266;-82
2023/12/17 14:52:42;;;;;;;8.77;5.53;;;8.30;57.00;;;;;;9824020;30;20302;-81
2023/12/17 14:58:07;;;;;;;9.90;5.57;;;8.30;38.30;;;;;;9810214;30;20210;-79
2023/12/17 15:03:29;;;;;;;7.23;5.00;;;8.30;43.10;;;;;;9822437;30;20214;-81
2023/12/17 15:08:51;;;;;;;10.30;5.37;;;8.30;49.20;;;;;;9823265;30;20266;-81
2023/12/17 15:14:12;;;;;;;8.87;5.27;;;8.20;71.90;;;;;;9823093;30;20526;-82
2023/12/17 15:19:35;;;;;;;8.27;4.77;;;8.20;58.60;;;;;;9823109;30;20286;-80
2023/12/17 15:24:56;;;;;;;12.37;5.57;;;8.20;51.40;;;;;;9822481;30;20200;-82
2023/12/17 15:30:17;;;;;;;9.20;4.47;;;8.20;48.40;;;;;;9822550;30;20234;-82
2023/12/17 15:35:38;;;;;;;6.00;4.77;;;8.20;42.60;;;;;;9823367;30;20318;-79
2023/12/17 15:40:59;;;;;;;7.40;4.93;;;8.20;34.80;;;;;;9820660;30;20226;-78
2023/12/17 15:46:29;;;;;;;6.80;4.43;;;8.20;27.30;;;;;;9808806;30;20493;-79
2023/12/17 15:51:50;;;;;;;8.20;4.53;;;8.20;17.70;;;;;;9819984;30;20313;-79
2023/12/17 15:57:11;;;;;;;6.27;3.73;;;8.20;5.30;;;;;;9808078;30;20215;-80
2023/12/17 16:02:33;;;;;;;8.80;5.43;;;8.30;1.00;;;;;;9793023;30;20221;-81
2023/12/17 16:07:55;;;;;;;8.43;5.03;;;8.20;1.00;;;;;;9796395;30;20213;-81
2023/12/17 16:13:16;;;;;;;8.63;5.57;;;8.20;1.00;;;;;;9798342;30;20288;-82
2023/12/17 16:18:37;;;;;;;6.13;4.03;;;8.30;1.00;;;;;;9784837;30;20258;-81
2023/12/17 16:23:59;;;;;;;9.03;5.77;;;8.30;1.00;;;;;;9797836;30;20210;-82
2023/12/17 16:29:21;;;;;;;8.63;4.60;;;8.30;1.00;;;;;;9812492;30;20215;-82
2023/12/17 16:34:42;;;;;;;9.23;6.60;;;8.30;1.00;;;;;;9797516;30;20215;-80
2023/12/17 16:40:04;;;;;;;10.27;6.53;;;8.20;1.00;;;;;;9795400;30;20430;-79
2023/12/17 16:45:26;;;;;;;8.23;5.63;;;8.10;1.00;;;;;;9785201;30;20223;-78
2023/12/17 16:50:47;;;;;;;16.50;7.33;;;8.10;1.00;;;;;;9809041;30;20262;-80
2023/12/17 16:56:11;;;;;;;10.23;6.53;;;8.10;1.00;;;;;;9819133;30;20519;-80
2023/12/17 17:01:32;;;;;;;9.77;7.57;;;8.20;1.00;;;;;;9819179;30;20214;-80
2023/12/17 17:06:53;;;;;;;9.23;7.07;;;8.20;1.00;;;;;;9817906;30;20276;-80
2023/12/17 17:12:14;;;;;;;8.00;6.57;;;8.20;1.00;;;;;;9805994;30;20234;-80
2023/12/17 17:17:36;;;;;;;12.10;6.77;;;8.10;1.00;;;;;;9818914;30;20205;-81
2023/12/17 17:22:57;;;;;;;11.20;7.17;;;8.10;1.00;;;;;;9818134;30;20214;-80
2023/12/17 17:28:18;;;;;;;13.03;7.37;;;8.10;1.00;;;;;;9817803;30;20311;-81
2023/12/17 17:33:39;;;;;;;15.40;8.17;;;8.10;1.00;;;;;;9818150;30;20584;-81
2023/12/17 17:39:00;;;;;;;15.23;9.27;;;8.00;1.00;;;;;;9805137;30;20466;-81
2023/12/17 17:44:22;;;;;;;15.40;8.80;;;7.90;1.00;;;;;;9818424;30;20210;-81
2023/12/17 17:49:43;;;;;;;17.30;9.63;;;7.90;1.00;;;;;;9816603;30;20271;-80
2023/12/17 17:55:06;;;;;;;10.87;7.87;;;8.00;1.00;;;;;;9805027;30;20203;-80
2023/12/17 18:00:27;;;;;;;15.13;8.00;;;7.90;1.00;;;;;;9804409;30;20217;-80
2023/12/17 18:05:48;;;;;;;13.40;7.40;;;8.10;1.00;;;;;;9807527;30;20286;-81
2023/12/17 18:11:10;;;;;;;12.40;6.80;;;8.10;1.00;;;;;;9824149;30;20590;-81
2023/12/17 18:16:31;;;;;;;15.13;7.53;;;8.00;1.00;;;;;;9823862;30;20221;-78
2023/12/17 18:21:52;;;;;;;6.47;4.80;;;8.10;1.00;;;;;;9799332;30;20230;-78
2023/12/17 18:27:14;;;;;;;7.63;5.10;;;8.10;1.00;;;;;;9836444;30;20205;-79
2023/12/17 18:32:35;;;;;;;10.00;5.67;;;8.10;1.00;;;;;;9823538;30;20231;-80
2023/12/17 18:37:56;;;;;;;10.93;5.77;;;8.10;1.00;;;;;;9823199;30;20263;-80
2023/12/17 18:43:18;;;;;;;6.23;4.80;;;8.10;1.00;;;;;;9823324;30;20229;-80
2023/12/17 18:48:40;;;;;;;6.10;4.60;;;8.10;1.00;;;;;;9810092;30;20243;-78
2023/12/17 18:54:01;;;;;;;5.73;4.67;;;8.20;1.00;;;;;;9823677;30;20241;-80
2023/12/17 18:59:23;;;;;;;6.53;5.30;;;8.30;1.00;;;;;;9822607;30;20218;-79
2023/12/17 19:04:45;;;;;;;9.93;5.27;;;8.20;1.00;;;;;;9810251;30;20202;-82
2023/12/17 19:10:06;;;;;;;6.33;5.20;;;8.40;99.90;;;;;;9823158;30;20238;-79
2023/12/17 19:15:27;;;;;;;7.17;4.83;;;8.30;99.90;;;;;;9821380;30;20202;-80
2023/12/17 19:20:49;;;;;;;6.67;4.90;;;8.40;99.90;;;;;;9822030;30;20211;-80
2023/12/17 19:26:11;;;;;;;6.93;4.87;;;8.40;1.00;;;;;;9809784;30;20277;-79
2023/12/17 19:31:32;;;;;;;8.33;4.90;;;8.50;1.00;;;;;;9822353;30;20241;-80
2023/12/17 19:36:53;;;;;;;9.37;5.53;;;8.40;1.00;;;;;;9821527;30;20515;-79
2023/12/17 19:42:14;;;;;;;6.97;5.23;;;8.50;99.90;;;;;;9822226;30;20210;-81
2023/12/17 19:47:36;;;;;;;8.90;5.97;;;8.40;1.00;;;;;;9822715;30;20273;-79
2023/12/17 19:52:59;;;;;;;6.93;4.90;;;8.40;1.00;;;;;;9820961;30;20245;-81
2023/12/17 19:58:21;;;;;;;8.63;5.30;;;8.50;99.90;;;;;;9820279;30;20282;-80
2023/12/17 20:03:43;;;;;;;7.33;5.00;;;8.40;1.00;;;;;;9820669;30;20549;-79
2023/12/17 20:09:05;;;;;;;6.90;5.27;;;8.40;1.00;;;;;;9808151;30;20373;-80
2023/12/17 20:14:26;;;;;;;8.27;5.53;;;8.40;99.90;;;;;;9819668;30;20238;-80
2023/12/17 20:19:47;;;;;;;9.50;5.80;;;8.40;1.00;;;;;;9820843;30;20206;-80
2023/12/17 20:25:09;;;;;;;7.10;5.37;;;8.40;99.90;;;;;;9820669;30;20210;-81
2023/12/17 20:30:32;;;;;;;6.67;5.40;;;8.40;99.90;;;;;;9818584;30;20299;-81
2023/12/17 20:35:53;;;;;;;9.87;5.87;;;8.40;1.00;;;;;;9819105;30;20245;-80
2023/12/17 20:41:16;;;;;;;11.37;6.13;;;8.40;1.00;;;;;;9819099;30;20256;-81
2023/12/17 20:46:37;;;;;;;15.77;6.80;;;8.40;1.00;;;;;;9794183;30;20242;-80
2023/12/17 20:51:59;;;;;;;12.80;7.97;;;8.40;1.00;;;;;;9819559;30;20248;-80
2023/12/17 20:57:22;;;;;;;11.43;6.33;;;8.50;99.90;;;;;;9806289;30;20394;-80
2023/12/17 21:02:44;;;;;;;13.23;8.23;;;8.40;1.00;;;;;;9812645;30;20396;-80
2023/12/17 21:08:05;;;;;;;11.97;7.53;;;8.50;99.90;;;;;;9818585;30;20257;-79
2023/12/17 21:13:28;;;;;;;11.40;7.60;;;8.50;99.90;;;;;;9818213;30;20237;-80
2023/12/17 21:18:49;;;;;;;12.07;7.63;;;8.50;99.90;;;;;;9805710;30;20268;-81
2023/12/17 21:24:11;;;;;;;10.70;7.10;;;8.40;99.90;;;;;;9818140;30;20201;-80
2023/12/17 21:29:32;;;;;;;12.03;7.77;;;8.30;99.90;;;;;;9818616;30;20253;-79
2023/12/17 21:34:53;;;;;;;12.10;8.17;;;8.40;1.00;;;;;;9817589;30;20218;-79
2023/12/17 21:40:14;;;;;;;16.40;8.97;;;8.50;1.00;;;;;;9804615;30;20218;-82
2023/12/17 21:45:36;;;;;;;14.60;9.30;;;8.50;1.00;;;;;;9804971;30;20450;-81
2023/12/17 21:50:57;;;;;;;13.07;8.77;;;8.50;1.00;;;;;;9817882;30;20278;-81
2023/12/17 21:56:18;;;;;;;14.67;9.30;;;8.40;1.00;;;;;;9817851;30;20199;-81
2023/12/17 22:01:39;;;;;;;19.57;11.00;;;8.30;41.00;;;;;;9804651;30;20503;-82
2023/12/17 22:07:00;;;;;;;16.53;9.33;;;8.40;1.00;;;;;;9804769;30;20208;-81
2023/12/17 22:12:22;;;;;;;13.80;9.47;;;8.40;1.00;;;;;;9816488;30;20312;-81
2023/12/17 22:17:43;;;;;;;12.87;7.13;;;8.40;99.90;;;;;;9804745;30;20216;-81
2023/12/17 22:23:05;;;;;;;13.47;6.60;;;8.40;1.00;;;;;;9816996;30;20209;-79
2023/12/17 22:28:27;;;;;;;8.17;5.30;;;8.40;99.90;;;;;;9816974;30;20236;-80
2023/12/17 22:33:49;;;;;;;9.63;5.00;;;8.40;99.90;;;;;;9817486;30;20493;-81
2023/12/17 22:39:12;;;;;;;13.73;5.53;;;8.30;1.00;;;;;;9804322;30;20209;-80
2023/12/17 22:44:33;;;;;;;11.30;5.33;;;8.30;99.90;;;;;;9804399;30;20206;-80
2023/12/17 22:49:58;;;;;;;8.20;4.93;;;8.30;1.00;;;;;;9803437;30;20273;-81
2023/12/17 22:55:19;;;;;;;6.90;4.43;;;8.30;1.00;;;;;;9823227;30;20205;-81
2023/12/17 23:00:41;;;;;;;10.50;5.30;;;8.30;99.90;;;;;;9809977;30;20237;-82
2023/12/17 23:06:03;;;;;;;10.37;5.20;;;8.20;1.00;;;;;;9822581;30;20216;-82
2023/12/17 23:11:24;;;;;;;14.70;5.53;;;8.20;1.00;;;;;;9823348;30;20253;-81
2023/12/17 23:16:45;;;;;;;7.07;4.50;;;8.30;28.30;;;;;;9822534;30;20276;-81
2023/12/17 23:22:07;;;;;;;10.67;4.87;;;8.20;1.00;;;;;;9809554;30;20213;-81
2023/12/17 23:27:28;;;;;;;10.00;4.90;;;8.20;99.90;;;;;;9834601;30;20442;-81
2023/12/17 23:32:49;;;;;;;11.00;5.37;;;8.20;99.90;;;;;;9821929;30;20313;-81
2023/12/17 23:38:10;;;;;;;12.73;4.47;;;8.10;99.90;;;;;;9821340;30;20281;-82
2023/12/17 23:43:32;;;;;;;8.63;4.63;;;8.10;99.90;;;;;;9809064;30;20211;-82
2023/12/17 23:48:53;;;;;;;11.77;5.07;;;8.10;99.90;;;;;;9820883;30;20337;-81
2023/12/17 23:54:15;;;;;;;10.17;4.60;;;8.00;1.00;;;;;;9808183;30;20237;-81
2023/12/17 23:59:36;;;;;;;9.73;5.20;;;8.10;99.90;;;;;;9820715;30;20207;-80
